Corwin Springs, Montana
Current Conditions -  °F | °C
As of 7:53 PM on Monday 20 Oct 2014 (Local Time) from KLVM Reporting Station
Clear Clear  
Wind Chill: 67°   Ceiling: Unl
Heat Index: 67°   Visibility: 10mi
Dew Point: 33°   Wind: 12mph
Humidity: 28%   Direction: 210°SSW
Pressure: 29.86"   Gusts: NA
Location:  45.0924°N, 110.236°W
Report Text: KLVM 210153Z AUTO 21010KT 10SM CLR 19/01 A2986 RMK AO2 SLP089 T01940006
Loading
Personal Weather Stations






























Interactive Weather Map
Tropical Storm Tracking
New forecast layout! Learn more

10-Day Weather Forecast

Advertisements
Track Severe Weather on mobile